sensor_id;sensor_type;location;lat;lon;timestamp;P1;durP1;ratioP1;P2;durP2;ratioP2
7027;SDS011;3555;53.248;10.336;2022-11-14T00:01:44;31.50;;;20.87;;
7027;SDS011;3555;53.248;10.336;2022-11-14T00:04:11;34.43;;;22.43;;
7027;SDS011;3555;53.248;10.336;2022-11-14T00:06:38;31.97;;;21.30;;
7027;SDS011;3555;53.248;10.336;2022-11-14T00:09:05;33.43;;;22.93;;
7027;SDS011;3555;53.248;10.336;2022-11-14T00:11:33;33.50;;;21.90;;
7027;SDS011;3555;53.248;10.336;2022-11-14T00:14:00;32.20;;;22.17;;
7027;SDS011;3555;53.248;10.336;2022-11-14T00:16:27;32.77;;;21.67;;
7027;SDS011;3555;53.248;10.336;2022-11-14T00:18:54;34.73;;;22.60;;
7027;SDS011;3555;53.248;10.336;2022-11-14T00:21:21;33.53;;;21.37;;
7027;SDS011;3555;53.248;10.336;2022-11-14T00:23:48;34.43;;;21.87;;
7027;SDS011;3555;53.248;10.336;2022-11-14T00:26:15;32.83;;;22.43;;
7027;SDS011;3555;53.248;10.336;2022-11-14T00:28:43;34.93;;;22.87;;
7027;SDS011;3555;53.248;10.336;2022-11-14T00:31:10;33.40;;;22.20;;
7027;SDS011;3555;53.248;10.336;2022-11-14T00:33:37;38.03;;;23.30;;
7027;SDS011;3555;53.248;10.336;2022-11-14T00:36:04;33.27;;;22.03;;
7027;SDS011;3555;53.248;10.336;2022-11-14T00:38:31;33.17;;;22.37;;
7027;SDS011;3555;53.248;10.336;2022-11-14T00:40:58;35.83;;;23.20;;
7027;SDS011;3555;53.248;10.336;2022-11-14T00:43:24;37.03;;;24.13;;
7027;SDS011;3555;53.248;10.336;2022-11-14T00:45:53;34.03;;;22.67;;
7027;SDS011;3555;53.248;10.336;2022-11-14T00:48:20;33.47;;;22.53;;
7027;SDS011;3555;53.248;10.336;2022-11-14T00:50:47;35.20;;;22.07;;
7027;SDS011;3555;53.248;10.336;2022-11-14T00:53:14;38.37;;;21.87;;
7027;SDS011;3555;53.248;10.336;2022-11-14T00:55:41;34.00;;;22.60;;
7027;SDS011;3555;53.248;10.336;2022-11-14T00:58:08;35.60;;;22.13;;
7027;SDS011;3555;53.248;10.336;2022-11-14T01:00:35;38.97;;;24.20;;
7027;SDS011;3555;53.248;10.336;2022-11-14T01:03:04;35.57;;;21.63;;
7027;SDS011;3555;53.248;10.336;2022-11-14T01:05:30;34.47;;;22.33;;
7027;SDS011;3555;53.248;10.336;2022-11-14T01:07:57;37.90;;;23.17;;
7027;SDS011;3555;53.248;10.336;2022-11-14T01:10:24;37.17;;;23.60;;
7027;SDS011;3555;53.248;10.336;2022-11-14T01:12:51;36.60;;;22.40;;
7027;SDS011;3555;53.248;10.336;2022-11-14T01:15:18;37.20;;;24.13;;
7027;SDS011;3555;53.248;10.336;2022-11-14T01:17:45;40.63;;;24.37;;
7027;SDS011;3555;53.248;10.336;2022-11-14T01:22:42;37.43;;;24.80;;
7027;SDS011;3555;53.248;10.336;2022-11-14T01:25:08;51.80;;;26.73;;
7027;SDS011;3555;53.248;10.336;2022-11-14T01:27:35;35.53;;;23.83;;
7027;SDS011;3555;53.248;10.336;2022-11-14T01:30:03;35.90;;;22.57;;
7027;SDS011;3555;53.248;10.336;2022-11-14T01:32:30;40.97;;;24.13;;
7027;SDS011;3555;53.248;10.336;2022-11-14T01:34:57;39.83;;;23.83;;
7027;SDS011;3555;53.248;10.336;2022-11-14T01:37:25;39.47;;;24.00;;
7027;SDS011;3555;53.248;10.336;2022-11-14T01:39:52;36.07;;;23.10;;
7027;SDS011;3555;53.248;10.336;2022-11-14T01:42:19;35.40;;;22.80;;
7027;SDS011;3555;53.248;10.336;2022-11-14T01:44:46;39.37;;;24.13;;
7027;SDS011;3555;53.248;10.336;2022-11-14T01:47:17;38.87;;;23.53;;
7027;SDS011;3555;53.248;10.336;2022-11-14T01:49:47;37.67;;;23.70;;
7027;SDS011;3555;53.248;10.336;2022-11-14T01:52:19;37.67;;;24.33;;
7027;SDS011;3555;53.248;10.336;2022-11-14T01:54:50;39.37;;;23.90;;
7027;SDS011;3555;53.248;10.336;2022-11-14T01:57:20;36.77;;;23.10;;
7027;SDS011;3555;53.248;10.336;2022-11-14T01:59:52;38.67;;;24.43;;
7027;SDS011;3555;53.248;10.336;2022-11-14T02:02:24;38.03;;;24.23;;
7027;SDS011;3555;53.248;10.336;2022-11-14T02:04:52;34.47;;;22.10;;
7027;SDS011;3555;53.248;10.336;2022-11-14T02:07:22;42.93;;;25.07;;
7027;SDS011;3555;53.248;10.336;2022-11-14T02:09:54;36.27;;;23.60;;
7027;SDS011;3555;53.248;10.336;2022-11-14T02:12:21;35.47;;;22.33;;
7027;SDS011;3555;53.248;10.336;2022-11-14T02:14:51;38.23;;;23.77;;
7027;SDS011;3555;53.248;10.336;2022-11-14T02:17:20;38.03;;;23.37;;
7027;SDS011;3555;53.248;10.336;2022-11-14T02:19:49;41.67;;;24.47;;
7027;SDS011;3555;53.248;10.336;2022-11-14T02:22:20;38.37;;;22.57;;
7027;SDS011;3555;53.248;10.336;2022-11-14T02:24:47;42.43;;;24.17;;
7027;SDS011;3555;53.248;10.336;2022-11-14T02:27:14;36.80;;;23.63;;
7027;SDS011;3555;53.248;10.336;2022-11-14T02:29:42;38.83;;;23.33;;
7027;SDS011;3555;53.248;10.336;2022-11-14T02:32:09;40.83;;;24.50;;
7027;SDS011;3555;53.248;10.336;2022-11-14T02:34:36;44.67;;;24.33;;
7027;SDS011;3555;53.248;10.336;2022-11-14T02:37:03;41.97;;;25.00;;
7027;SDS011;3555;53.248;10.336;2022-11-14T02:39:32;40.20;;;24.83;;
7027;SDS011;3555;53.248;10.336;2022-11-14T02:41:59;39.00;;;24.87;;
7027;SDS011;3555;53.248;10.336;2022-11-14T02:44:26;41.90;;;25.43;;
7027;SDS011;3555;53.248;10.336;2022-11-14T02:46:53;43.53;;;25.17;;
7027;SDS011;3555;53.248;10.336;2022-11-14T02:49:20;41.73;;;25.00;;
7027;SDS011;3555;53.248;10.336;2022-11-14T02:51:46;41.87;;;24.87;;
7027;SDS011;3555;53.248;10.336;2022-11-14T02:54:13;43.40;;;26.57;;
7027;SDS011;3555;53.248;10.336;2022-11-14T02:56:42;40.13;;;24.83;;
7027;SDS011;3555;53.248;10.336;2022-11-14T02:59:08;39.97;;;24.70;;
7027;SDS011;3555;53.248;10.336;2022-11-14T03:01:35;38.73;;;25.03;;
7027;SDS011;3555;53.248;10.336;2022-11-14T03:04:02;41.43;;;24.90;;
7027;SDS011;3555;53.248;10.336;2022-11-14T03:06:29;41.00;;;25.17;;
7027;SDS011;3555;53.248;10.336;2022-11-14T03:08:56;41.17;;;25.33;;
7027;SDS011;3555;53.248;10.336;2022-11-14T03:11:23;42.53;;;25.60;;
7027;SDS011;3555;53.248;10.336;2022-11-14T03:13:52;41.17;;;25.67;;
7027;SDS011;3555;53.248;10.336;2022-11-14T03:16:19;40.80;;;26.27;;
7027;SDS011;3555;53.248;10.336;2022-11-14T03:18:46;46.00;;;26.30;;
7027;SDS011;3555;53.248;10.336;2022-11-14T03:21:13;42.63;;;27.10;;
7027;SDS011;3555;53.248;10.336;2022-11-14T03:23:41;44.67;;;26.50;;
7027;SDS011;3555;53.248;10.336;2022-11-14T03:26:09;41.83;;;26.90;;
7027;SDS011;3555;53.248;10.336;2022-11-14T03:28:37;40.37;;;25.40;;
7027;SDS011;3555;53.248;10.336;2022-11-14T03:31:07;42.67;;;26.40;;
7027;SDS011;3555;53.248;10.336;2022-11-14T03:33:35;44.00;;;27.67;;
7027;SDS011;3555;53.248;10.336;2022-11-14T03:36:02;45.80;;;27.93;;
7027;SDS011;3555;53.248;10.336;2022-11-14T03:38:30;42.20;;;25.17;;
7027;SDS011;3555;53.248;10.336;2022-11-14T03:40:58;43.93;;;26.13;;
7027;SDS011;3555;53.248;10.336;2022-11-14T03:43:25;43.13;;;25.97;;
7027;SDS011;3555;53.248;10.336;2022-11-14T03:45:56;42.20;;;26.50;;
7027;SDS011;3555;53.248;10.336;2022-11-14T03:48:25;40.70;;;25.40;;
7027;SDS011;3555;53.248;10.336;2022-11-14T03:50:52;45.03;;;26.07;;
7027;SDS011;3555;53.248;10.336;2022-11-14T03:53:19;45.73;;;26.37;;
7027;SDS011;3555;53.248;10.336;2022-11-14T03:55:46;44.80;;;26.67;;
7027;SDS011;3555;53.248;10.336;2022-11-14T03:58:13;44.23;;;27.07;;
7027;SDS011;3555;53.248;10.336;2022-11-14T04:00:39;44.07;;;27.43;;
7027;SDS011;3555;53.248;10.336;2022-11-14T04:03:06;42.20;;;25.93;;
7027;SDS011;3555;53.248;10.336;2022-11-14T04:05:35;40.10;;;25.77;;
7027;SDS011;3555;53.248;10.336;2022-11-14T04:08:03;42.03;;;26.83;;
7027;SDS011;3555;53.248;10.336;2022-11-14T04:10:30;42.07;;;25.20;;
7027;SDS011;3555;53.248;10.336;2022-11-14T04:12:57;42.77;;;25.80;;
7027;SDS011;3555;53.248;10.336;2022-11-14T04:15:24;41.00;;;24.77;;
7027;SDS011;3555;53.248;10.336;2022-11-14T04:17:51;40.40;;;25.13;;
7027;SDS011;3555;53.248;10.336;2022-11-14T04:20:17;47.23;;;26.73;;
7027;SDS011;3555;53.248;10.336;2022-11-14T04:22:46;40.93;;;25.87;;
7027;SDS011;3555;53.248;10.336;2022-11-14T04:25:13;43.17;;;26.90;;
7027;SDS011;3555;53.248;10.336;2022-11-14T04:27:39;44.70;;;26.73;;
7027;SDS011;3555;53.248;10.336;2022-11-14T04:30:07;45.57;;;25.90;;
7027;SDS011;3555;53.248;10.336;2022-11-14T04:32:34;42.83;;;27.00;;
7027;SDS011;3555;53.248;10.336;2022-11-14T04:35:01;41.30;;;25.03;;
7027;SDS011;3555;53.248;10.336;2022-11-14T04:37:28;46.40;;;27.80;;
7027;SDS011;3555;53.248;10.336;2022-11-14T04:39:56;42.63;;;25.83;;
7027;SDS011;3555;53.248;10.336;2022-11-14T04:42:26;45.93;;;27.17;;
7027;SDS011;3555;53.248;10.336;2022-11-14T04:44:53;44.13;;;26.63;;
7027;SDS011;3555;53.248;10.336;2022-11-14T04:47:20;43.83;;;27.73;;
7027;SDS011;3555;53.248;10.336;2022-11-14T04:49:47;46.90;;;26.00;;
7027;SDS011;3555;53.248;10.336;2022-11-14T04:52:14;43.03;;;26.83;;
7027;SDS011;3555;53.248;10.336;2022-11-14T04:54:41;47.67;;;28.17;;
7027;SDS011;3555;53.248;10.336;2022-11-14T04:57:09;43.50;;;26.70;;
7027;SDS011;3555;53.248;10.336;2022-11-14T04:59:36;45.30;;;27.77;;
7027;SDS011;3555;53.248;10.336;2022-11-14T05:02:03;48.70;;;29.07;;
7027;SDS011;3555;53.248;10.336;2022-11-14T05:04:30;46.00;;;28.13;;
7027;SDS011;3555;53.248;10.336;2022-11-14T05:06:57;48.07;;;27.17;;
7027;SDS011;3555;53.248;10.336;2022-11-14T05:09:24;47.63;;;28.33;;
7027;SDS011;3555;53.248;10.336;2022-11-14T05:11:51;48.57;;;28.63;;
7027;SDS011;3555;53.248;10.336;2022-11-14T05:14:19;47.13;;;28.20;;
7027;SDS011;3555;53.248;10.336;2022-11-14T05:16:46;49.53;;;28.40;;
7027;SDS011;3555;53.248;10.336;2022-11-14T05:19:13;45.33;;;27.93;;
7027;SDS011;3555;53.248;10.336;2022-11-14T05:21:40;48.17;;;27.90;;
7027;SDS011;3555;53.248;10.336;2022-11-14T05:24:07;45.67;;;28.10;;
7027;SDS011;3555;53.248;10.336;2022-11-14T05:26:34;49.13;;;28.10;;
7027;SDS011;3555;53.248;10.336;2022-11-14T05:29:01;49.20;;;28.37;;
7027;SDS011;3555;53.248;10.336;2022-11-14T05:31:29;47.63;;;28.77;;
7027;SDS011;3555;53.248;10.336;2022-11-14T05:33:56;47.60;;;28.27;;
7027;SDS011;3555;53.248;10.336;2022-11-14T05:36:23;50.17;;;28.00;;
7027;SDS011;3555;53.248;10.336;2022-11-14T05:38:50;52.83;;;29.57;;
7027;SDS011;3555;53.248;10.336;2022-11-14T05:41:17;51.47;;;29.83;;
7027;SDS011;3555;53.248;10.336;2022-11-14T05:43:45;52.03;;;29.13;;
7027;SDS011;3555;53.248;10.336;2022-11-14T05:46:12;51.53;;;30.13;;
7027;SDS011;3555;53.248;10.336;2022-11-14T05:48:42;47.57;;;28.43;;
7027;SDS011;3555;53.248;10.336;2022-11-14T05:51:10;53.77;;;29.43;;
7027;SDS011;3555;53.248;10.336;2022-11-14T05:53:38;53.47;;;29.43;;
7027;SDS011;3555;53.248;10.336;2022-11-14T05:56:06;51.40;;;29.10;;
7027;SDS011;3555;53.248;10.336;2022-11-14T05:58:35;53.03;;;30.07;;
7027;SDS011;3555;53.248;10.336;2022-11-14T06:01:03;53.70;;;30.87;;
7027;SDS011;3555;53.248;10.336;2022-11-14T06:03:31;48.60;;;28.13;;
7027;SDS011;3555;53.248;10.336;2022-11-14T06:06:01;50.13;;;28.87;;
7027;SDS011;3555;53.248;10.336;2022-11-14T06:08:29;54.30;;;30.30;;
7027;SDS011;3555;53.248;10.336;2022-11-14T06:11:00;55.53;;;30.73;;
7027;SDS011;3555;53.248;10.336;2022-11-14T06:13:28;55.97;;;30.63;;
7027;SDS011;3555;53.248;10.336;2022-11-14T06:15:57;53.50;;;30.30;;
7027;SDS011;3555;53.248;10.336;2022-11-14T06:18:25;53.83;;;30.67;;
7027;SDS011;3555;53.248;10.336;2022-11-14T06:20:52;62.43;;;31.50;;
7027;SDS011;3555;53.248;10.336;2022-11-14T06:23:20;62.50;;;31.87;;
7027;SDS011;3555;53.248;10.336;2022-11-14T06:25:47;56.53;;;31.53;;
7027;SDS011;3555;53.248;10.336;2022-11-14T06:28:14;53.17;;;30.43;;
7027;SDS011;3555;53.248;10.336;2022-11-14T06:30:41;53.23;;;29.83;;
7027;SDS011;3555;53.248;10.336;2022-11-14T06:33:07;54.93;;;28.70;;
7027;SDS011;3555;53.248;10.336;2022-11-14T06:35:34;49.03;;;28.20;;
7027;SDS011;3555;53.248;10.336;2022-11-14T06:38:01;51.03;;;27.80;;
7027;SDS011;3555;53.248;10.336;2022-11-14T06:40:29;49.97;;;28.13;;
7027;SDS011;3555;53.248;10.336;2022-11-14T06:42:56;49.80;;;27.13;;
7027;SDS011;3555;53.248;10.336;2022-11-14T06:45:23;48.17;;;26.97;;
7027;SDS011;3555;53.248;10.336;2022-11-14T06:47:51;50.87;;;27.47;;
7027;SDS011;3555;53.248;10.336;2022-11-14T06:50:17;49.20;;;26.37;;
7027;SDS011;3555;53.248;10.336;2022-11-14T06:52:44;53.17;;;28.00;;
7027;SDS011;3555;53.248;10.336;2022-11-14T06:55:11;50.00;;;27.40;;
7027;SDS011;3555;53.248;10.336;2022-11-14T06:57:40;55.37;;;27.77;;
7027;SDS011;3555;53.248;10.336;2022-11-14T07:00:07;52.47;;;27.93;;
7027;SDS011;3555;53.248;10.336;2022-11-14T07:02:34;51.00;;;28.23;;
7027;SDS011;3555;53.248;10.336;2022-11-14T07:05:01;53.47;;;28.63;;
7027;SDS011;3555;53.248;10.336;2022-11-14T07:07:29;51.10;;;27.67;;
7027;SDS011;3555;53.248;10.336;2022-11-14T07:09:56;53.17;;;28.00;;
7027;SDS011;3555;53.248;10.336;2022-11-14T07:12:23;55.03;;;28.30;;
7027;SDS011;3555;53.248;10.336;2022-11-14T07:14:51;59.40;;;28.93;;
7027;SDS011;3555;53.248;10.336;2022-11-14T07:17:18;57.50;;;29.27;;
7027;SDS011;3555;53.248;10.336;2022-11-14T07:19:45;54.00;;;28.87;;
7027;SDS011;3555;53.248;10.336;2022-11-14T07:22:12;54.73;;;28.50;;
7027;SDS011;3555;53.248;10.336;2022-11-14T07:24:39;55.10;;;28.60;;
7027;SDS011;3555;53.248;10.336;2022-11-14T07:27:06;58.23;;;30.43;;
7027;SDS011;3555;53.248;10.336;2022-11-14T07:29:36;57.40;;;30.63;;
7027;SDS011;3555;53.248;10.336;2022-11-14T07:32:04;57.47;;;29.47;;
7027;SDS011;3555;53.248;10.336;2022-11-14T07:34:31;52.27;;;27.97;;
7027;SDS011;3555;53.248;10.336;2022-11-14T07:36:58;53.10;;;27.93;;
7027;SDS011;3555;53.248;10.336;2022-11-14T07:39:25;57.73;;;29.67;;
7027;SDS011;3555;53.248;10.336;2022-11-14T07:41:52;52.53;;;28.67;;
7027;SDS011;3555;53.248;10.336;2022-11-14T07:44:19;53.73;;;28.87;;
7027;SDS011;3555;53.248;10.336;2022-11-14T07:46:46;57.77;;;29.40;;
7027;SDS011;3555;53.248;10.336;2022-11-14T07:49:15;49.87;;;28.13;;
7027;SDS011;3555;53.248;10.336;2022-11-14T07:51:42;49.90;;;28.27;;
7027;SDS011;3555;53.248;10.336;2022-11-14T07:54:09;49.43;;;28.47;;
7027;SDS011;3555;53.248;10.336;2022-11-14T07:56:37;48.90;;;27.83;;
7027;SDS011;3555;53.248;10.336;2022-11-14T07:59:04;51.97;;;28.67;;
7027;SDS011;3555;53.248;10.336;2022-11-14T08:01:31;52.00;;;29.83;;
7027;SDS011;3555;53.248;10.336;2022-11-14T08:03:58;53.70;;;28.47;;
7027;SDS011;3555;53.248;10.336;2022-11-14T08:06:26;54.00;;;28.33;;
7027;SDS011;3555;53.248;10.336;2022-11-14T08:08:53;51.97;;;28.43;;
7027;SDS011;3555;53.248;10.336;2022-11-14T08:11:20;53.23;;;27.43;;
7027;SDS011;3555;53.248;10.336;2022-11-14T08:14:07;52.40;;;28.43;;
7027;SDS011;3555;53.248;10.336;2022-11-14T08:16:34;49.40;;;28.20;;
7027;SDS011;3555;53.248;10.336;2022-11-14T08:19:00;48.90;;;26.70;;
7027;SDS011;3555;53.248;10.336;2022-11-14T08:21:29;48.57;;;27.33;;
7027;SDS011;3555;53.248;10.336;2022-11-14T08:23:56;50.40;;;28.27;;
7027;SDS011;3555;53.248;10.336;2022-11-14T08:26:23;48.77;;;26.07;;
7027;SDS011;3555;53.248;10.336;2022-11-14T08:28:51;44.10;;;26.03;;
7027;SDS011;3555;53.248;10.336;2022-11-14T08:31:19;44.30;;;26.47;;
7027;SDS011;3555;53.248;10.336;2022-11-14T08:33:46;47.70;;;26.80;;
7027;SDS011;3555;53.248;10.336;2022-11-14T08:36:14;49.00;;;26.67;;
7027;SDS011;3555;53.248;10.336;2022-11-14T08:38:42;50.43;;;26.97;;
7027;SDS011;3555;53.248;10.336;2022-11-14T08:41:09;44.00;;;26.00;;
7027;SDS011;3555;53.248;10.336;2022-11-14T08:43:37;45.20;;;27.10;;
7027;SDS011;3555;53.248;10.336;2022-11-14T08:46:04;46.13;;;26.40;;
7027;SDS011;3555;53.248;10.336;2022-11-14T08:48:31;44.90;;;25.63;;
7027;SDS011;3555;53.248;10.336;2022-11-14T08:51:00;43.70;;;25.33;;
7027;SDS011;3555;53.248;10.336;2022-11-14T08:53:28;44.10;;;26.67;;
7027;SDS011;3555;53.248;10.336;2022-11-14T08:55:57;43.47;;;25.67;;
7027;SDS011;3555;53.248;10.336;2022-11-14T08:58:26;41.83;;;25.23;;
7027;SDS011;3555;53.248;10.336;2022-11-14T09:00:54;41.83;;;24.13;;
7027;SDS011;3555;53.248;10.336;2022-11-14T09:03:25;45.20;;;23.90;;
7027;SDS011;3555;53.248;10.336;2022-11-14T09:05:52;46.77;;;25.30;;
7027;SDS011;3555;53.248;10.336;2022-11-14T09:08:19;36.33;;;22.83;;
7027;SDS011;3555;53.248;10.336;2022-11-14T09:10:46;42.10;;;24.67;;
7027;SDS011;3555;53.248;10.336;2022-11-14T09:13:15;40.97;;;24.13;;
7027;SDS011;3555;53.248;10.336;2022-11-14T09:15:42;43.57;;;25.20;;
7027;SDS011;3555;53.248;10.336;2022-11-14T09:18:09;37.90;;;23.13;;
7027;SDS011;3555;53.248;10.336;2022-11-14T09:20:37;39.00;;;24.53;;
7027;SDS011;3555;53.248;10.336;2022-11-14T09:23:04;37.87;;;23.90;;
7027;SDS011;3555;53.248;10.336;2022-11-14T09:25:31;41.07;;;23.43;;
7027;SDS011;3555;53.248;10.336;2022-11-14T09:28:02;39.57;;;24.20;;
7027;SDS011;3555;53.248;10.336;2022-11-14T09:30:31;36.73;;;23.23;;
7027;SDS011;3555;53.248;10.336;2022-11-14T09:32:59;42.93;;;23.77;;
7027;SDS011;3555;53.248;10.336;2022-11-14T09:35:27;43.03;;;22.97;;
7027;SDS011;3555;53.248;10.336;2022-11-14T09:37:59;35.90;;;23.07;;
7027;SDS011;3555;53.248;10.336;2022-11-14T09:40:27;39.73;;;23.90;;
7027;SDS011;3555;53.248;10.336;2022-11-14T09:45:52;37.43;;;22.50;;
7027;SDS011;3555;53.248;10.336;2022-11-14T09:48:20;35.70;;;22.43;;
7027;SDS011;3555;53.248;10.336;2022-11-14T09:50:52;38.63;;;23.07;;
7027;SDS011;3555;53.248;10.336;2022-11-14T09:53:30;36.60;;;22.83;;
7027;SDS011;3555;53.248;10.336;2022-11-14T09:55:59;34.33;;;22.97;;
7027;SDS011;3555;53.248;10.336;2022-11-14T09:58:26;39.67;;;23.97;;
7027;SDS011;3555;53.248;10.336;2022-11-14T10:00:55;39.60;;;23.33;;
7027;SDS011;3555;53.248;10.336;2022-11-14T10:03:30;37.63;;;21.67;;
7027;SDS011;3555;53.248;10.336;2022-11-14T10:06:11;35.33;;;22.53;;
7027;SDS011;3555;53.248;10.336;2022-11-14T10:11:41;38.20;;;21.90;;
7027;SDS011;3555;53.248;10.336;2022-11-14T10:14:31;38.87;;;21.90;;
7027;SDS011;3555;53.248;10.336;2022-11-14T10:17:20;32.17;;;21.23;;
7027;SDS011;3555;53.248;10.336;2022-11-14T10:19:59;40.80;;;21.37;;
7027;SDS011;3555;53.248;10.336;2022-11-14T10:22:42;33.53;;;21.03;;
7027;SDS011;3555;53.248;10.336;2022-11-14T10:25:20;36.43;;;22.13;;
7027;SDS011;3555;53.248;10.336;2022-11-14T10:27:54;30.80;;;19.53;;
7027;SDS011;3555;53.248;10.336;2022-11-14T10:30:34;34.80;;;20.87;;
7027;SDS011;3555;53.248;10.336;2022-11-14T10:33:15;34.37;;;21.23;;
7027;SDS011;3555;53.248;10.336;2022-11-14T10:35:54;31.40;;;20.17;;
7027;SDS011;3555;53.248;10.336;2022-11-14T10:38:27;31.77;;;20.13;;
7027;SDS011;3555;53.248;10.336;2022-11-14T10:40:59;31.90;;;21.27;;
7027;SDS011;3555;53.248;10.336;2022-11-14T10:43:31;32.10;;;20.00;;
7027;SDS011;3555;53.248;10.336;2022-11-14T10:46:02;32.33;;;20.30;;
7027;SDS011;3555;53.248;10.336;2022-11-14T10:48:34;31.87;;;20.30;;
7027;SDS011;3555;53.248;10.336;2022-11-14T10:51:05;32.43;;;21.27;;
7027;SDS011;3555;53.248;10.336;2022-11-14T10:53:44;30.90;;;19.20;;
7027;SDS011;3555;53.248;10.336;2022-11-14T10:56:15;29.93;;;19.17;;
7027;SDS011;3555;53.248;10.336;2022-11-14T10:58:43;32.33;;;19.17;;
7027;SDS011;3555;53.248;10.336;2022-11-14T11:04:11;30.70;;;19.90;;
7027;SDS011;3555;53.248;10.336;2022-11-14T11:06:43;29.77;;;19.20;;
7027;SDS011;3555;53.248;10.336;2022-11-14T11:09:12;26.77;;;18.17;;
7027;SDS011;3555;53.248;10.336;2022-11-14T11:11:58;29.93;;;19.43;;
7027;SDS011;3555;53.248;10.336;2022-11-14T11:14:27;30.20;;;19.00;;
7027;SDS011;3555;53.248;10.336;2022-11-14T11:17:13;31.90;;;19.87;;
7027;SDS011;3555;53.248;10.336;2022-11-14T11:19:44;29.23;;;19.20;;
7027;SDS011;3555;53.248;10.336;2022-11-14T11:22:26;30.60;;;19.60;;
7027;SDS011;3555;53.248;10.336;2022-11-14T11:24:55;27.83;;;18.17;;
7027;SDS011;3555;53.248;10.336;2022-11-14T11:27:23;31.60;;;19.23;;
7027;SDS011;3555;53.248;10.336;2022-11-14T11:30:01;28.10;;;18.03;;
7027;SDS011;3555;53.248;10.336;2022-11-14T11:32:32;28.53;;;19.63;;
7027;SDS011;3555;53.248;10.336;2022-11-14T11:35:01;31.67;;;18.70;;
7027;SDS011;3555;53.248;10.336;2022-11-14T11:37:35;29.43;;;18.80;;
7027;SDS011;3555;53.248;10.336;2022-11-14T11:40:05;31.73;;;20.13;;
7027;SDS011;3555;53.248;10.336;2022-11-14T11:42:42;27.73;;;18.40;;
7027;SDS011;3555;53.248;10.336;2022-11-14T11:45:15;25.53;;;18.27;;
7027;SDS011;3555;53.248;10.336;2022-11-14T11:47:45;25.73;;;18.03;;
7027;SDS011;3555;53.248;10.336;2022-11-14T11:50:19;27.13;;;17.63;;
7027;SDS011;3555;53.248;10.336;2022-11-14T11:52:49;24.40;;;16.57;;
7027;SDS011;3555;53.248;10.336;2022-11-14T11:55:24;26.53;;;17.77;;
7027;SDS011;3555;53.248;10.336;2022-11-14T11:57:55;26.77;;;17.07;;
7027;SDS011;3555;53.248;10.336;2022-11-14T12:00:27;25.03;;;17.70;;
7027;SDS011;3555;53.248;10.336;2022-11-14T12:02:54;24.47;;;17.37;;
7027;SDS011;3555;53.248;10.336;2022-11-14T12:05:25;27.50;;;17.77;;
7027;SDS011;3555;53.248;10.336;2022-11-14T12:08:00;25.20;;;17.53;;
7027;SDS011;3555;53.248;10.336;2022-11-14T12:10:29;26.20;;;17.07;;
7027;SDS011;3555;53.248;10.336;2022-11-14T12:16:07;26.57;;;17.23;;
7027;SDS011;3555;53.248;10.336;2022-11-14T12:18:48;27.97;;;18.60;;
7027;SDS011;3555;53.248;10.336;2022-11-14T12:21:33;25.37;;;17.43;;
7027;SDS011;3555;53.248;10.336;2022-11-14T12:24:23;28.70;;;18.07;;
7027;SDS011;3555;53.248;10.336;2022-11-14T12:27:05;25.83;;;17.33;;
7027;SDS011;3555;53.248;10.336;2022-11-14T12:29:47;28.77;;;17.70;;
7027;SDS011;3555;53.248;10.336;2022-11-14T12:32:27;27.03;;;17.97;;
7027;SDS011;3555;53.248;10.336;2022-11-14T12:34:57;24.60;;;17.50;;
7027;SDS011;3555;53.248;10.336;2022-11-14T12:37:32;27.87;;;17.57;;
7027;SDS011;3555;53.248;10.336;2022-11-14T12:40:02;26.43;;;18.10;;
7027;SDS011;3555;53.248;10.336;2022-11-14T12:42:31;25.60;;;17.70;;
7027;SDS011;3555;53.248;10.336;2022-11-14T12:44:58;25.57;;;17.23;;
7027;SDS011;3555;53.248;10.336;2022-11-14T12:47:25;29.27;;;18.80;;
7027;SDS011;3555;53.248;10.336;2022-11-14T12:49:57;24.63;;;17.13;;
7027;SDS011;3555;53.248;10.336;2022-11-14T12:52:44;25.80;;;17.83;;
7027;SDS011;3555;53.248;10.336;2022-11-14T12:58:14;26.10;;;17.33;;
7027;SDS011;3555;53.248;10.336;2022-11-14T13:00:57;25.50;;;17.40;;
7027;SDS011;3555;53.248;10.336;2022-11-14T13:03:39;26.87;;;17.70;;
7027;SDS011;3555;53.248;10.336;2022-11-14T13:06:18;26.20;;;17.27;;
7027;SDS011;3555;53.248;10.336;2022-11-14T13:09:05;27.63;;;17.93;;
7027;SDS011;3555;53.248;10.336;2022-11-14T13:15:17;26.83;;;17.70;;
7027;SDS011;3555;53.248;10.336;2022-11-14T13:18:11;23.23;;;16.23;;
7027;SDS011;3555;53.248;10.336;2022-11-14T13:21:05;27.03;;;17.80;;
7027;SDS011;3555;53.248;10.336;2022-11-14T13:24:00;25.97;;;17.33;;
7027;SDS011;3555;53.248;10.336;2022-11-14T13:26:44;25.27;;;17.13;;
7027;SDS011;3555;53.248;10.336;2022-11-14T13:35:54;25.83;;;16.30;;
7027;SDS011;3555;53.248;10.336;2022-11-14T13:38:42;24.90;;;17.00;;
7027;SDS011;3555;53.248;10.336;2022-11-14T13:41:45;29.87;;;18.03;;
7027;SDS011;3555;53.248;10.336;2022-11-14T13:44:37;25.23;;;16.57;;
7027;SDS011;3555;53.248;10.336;2022-11-14T13:50:36;25.20;;;16.80;;
7027;SDS011;3555;53.248;10.336;2022-11-14T13:53:10;27.90;;;17.33;;
7027;SDS011;3555;53.248;10.336;2022-11-14T13:55:45;28.00;;;18.43;;
7027;SDS011;3555;53.248;10.336;2022-11-14T13:58:25;23.43;;;16.20;;
7027;SDS011;3555;53.248;10.336;2022-11-14T14:01:04;30.37;;;17.70;;
7027;SDS011;3555;53.248;10.336;2022-11-14T14:03:44;25.50;;;16.70;;
7027;SDS011;3555;53.248;10.336;2022-11-14T14:06:30;26.03;;;16.50;;
7027;SDS011;3555;53.248;10.336;2022-11-14T14:09:11;25.80;;;16.90;;
7027;SDS011;3555;53.248;10.336;2022-11-14T14:11:48;22.23;;;16.13;;
7027;SDS011;3555;53.248;10.336;2022-11-14T14:14:43;24.23;;;15.57;;
7027;SDS011;3555;53.248;10.336;2022-11-14T14:17:24;22.20;;;15.83;;
7027;SDS011;3555;53.248;10.336;2022-11-14T14:20:00;22.63;;;15.57;;
7027;SDS011;3555;53.248;10.336;2022-11-14T14:22:42;22.73;;;16.20;;
7027;SDS011;3555;53.248;10.336;2022-11-14T14:25:18;22.27;;;15.87;;
7027;SDS011;3555;53.248;10.336;2022-11-14T14:27:54;22.57;;;15.67;;
7027;SDS011;3555;53.248;10.336;2022-11-14T14:30:32;21.37;;;16.03;;
7027;SDS011;3555;53.248;10.336;2022-11-14T14:33:04;23.13;;;16.40;;
7027;SDS011;3555;53.248;10.336;2022-11-14T14:35:37;23.77;;;15.67;;
7027;SDS011;3555;53.248;10.336;2022-11-14T14:38:08;23.37;;;15.80;;
7027;SDS011;3555;53.248;10.336;2022-11-14T14:40:38;22.53;;;15.43;;
7027;SDS011;3555;53.248;10.336;2022-11-14T14:43:12;20.57;;;15.03;;
7027;SDS011;3555;53.248;10.336;2022-11-14T14:45:51;21.90;;;15.30;;
7027;SDS011;3555;53.248;10.336;2022-11-14T14:48:21;22.77;;;15.13;;
7027;SDS011;3555;53.248;10.336;2022-11-14T14:50:51;22.80;;;15.53;;
7027;SDS011;3555;53.248;10.336;2022-11-14T14:53:19;21.57;;;15.33;;
7027;SDS011;3555;53.248;10.336;2022-11-14T14:55:51;22.23;;;16.40;;
7027;SDS011;3555;53.248;10.336;2022-11-14T14:58:23;21.43;;;15.53;;
7027;SDS011;3555;53.248;10.336;2022-11-14T15:00:54;26.17;;;15.57;;
7027;SDS011;3555;53.248;10.336;2022-11-14T15:03:24;22.07;;;15.70;;
7027;SDS011;3555;53.248;10.336;2022-11-14T15:05:58;22.27;;;15.23;;
7027;SDS011;3555;53.248;10.336;2022-11-14T15:08:26;24.47;;;16.20;;
7027;SDS011;3555;53.248;10.336;2022-11-14T15:10:57;23.43;;;15.87;;
7027;SDS011;3555;53.248;10.336;2022-11-14T15:13:25;22.53;;;15.03;;
7027;SDS011;3555;53.248;10.336;2022-11-14T15:15:56;21.87;;;15.23;;
7027;SDS011;3555;53.248;10.336;2022-11-14T15:18:24;26.57;;;17.10;;
7027;SDS011;3555;53.248;10.336;2022-11-14T15:21:06;26.17;;;17.10;;
7027;SDS011;3555;53.248;10.336;2022-11-14T15:23:38;22.87;;;16.27;;